Terminal Aerodrome Forecast
Issued by NWS

Home | Current Version | Previous Version | Graphics & Text | Print | Product List | Glossary Off
Versions: 1 2 3 4 5 6 7 8 9 10 11 12 13 14

000
FTUS43 KDDC 231120
TAFGCK
TAF
KGCK 231120Z 2312/2412 17008KT P6SM VCTS SCT070CB BKN120
     FM231300 18013KT P6SM SCT110
     FM240400 13009KT P6SM BKN100=

USA.gov is the U.S. government's official web portal to all federal, state and local government web resources and services.